Quartzsite, Arizona
Current Conditions -  °F | °C
As of 7:52 AM on Monday 24 Nov 2014 (Local Time) from KBLH Reporting Station
Clear Clear  
Wind Chill: 49°   Ceiling: Unl
Heat Index: 49°   Visibility: 10mi
Dew Point: 12°   Wind: 3mph
Humidity: 23%   Direction: 220°SW
Pressure: 30.26"   Gusts: NA
Location:  33.67°N, 114.22°W
Report Text: KBLH 241452Z AUTO 22003KT 10SM CLR 09/M11 A3026 RMK AO2 SLP244 T00941111 53021
Loading
Personal Weather Stations






























Interactive Weather Map New forecast layout! Learn more

10-Day Weather Forecast

Advertisements
Track Severe Weather on mobile